Time;durP1;ratioP1;P1;durP2;ratioP2;P2;SDS_P1;SDS_P2;PMS_P1;PMS_P2;Temp;Humidity;BMP_temperature;BMP_pressure;BME280_temperature;BME280_humidity;BME280_pressure;Samples;Min_cycle;Max_cycle;Signal;HPM_P1;HPM_P2
2022/05/24 00:01:17;;;;;;;2.83;1.30;;;13.60;99.90;;;;;;5074155;28;20127;-92
2022/05/24 00:03:43;;;;;;;1.88;1.50;;;13.60;99.90;;;;;;5074327;28;20043;-89
2022/05/24 00:06:09;;;;;;;2.97;1.58;;;13.60;99.90;;;;;;5055742;28;20040;-91
2022/05/24 00:08:34;;;;;;;3.22;2.03;;;14.10;99.90;;;;;;5073202;28;20480;-92
2022/05/24 00:11:01;;;;;;;3.30;1.63;;;13.50;99.90;;;;;;5056744;28;20039;-87
2022/05/24 00:13:27;;;;;;;5.45;1.73;;;13.50;99.90;;;;;;5074664;28;20110;-88
2022/05/24 00:15:52;;;;;;;3.10;2.05;;;13.60;99.90;;;;;;5075193;28;20048;-91
2022/05/24 00:18:23;;;;;;;1.58;1.08;;;13.40;99.90;;;;;;5071930;28;20043;-89
2022/05/24 00:20:59;;;;;;;3.67;1.45;;;13.40;99.90;;;;;;5056525;28;20040;-89
2022/05/24 00:23:26;;;;;;;2.65;1.08;;;13.80;99.90;;;;;;5073681;28;20048;-90
2022/05/24 00:25:54;;;;;;;2.00;1.25;;;13.10;99.90;;;;;;5073766;28;20147;-92
2022/05/24 00:28:23;;;;;;;2.50;1.10;;;13.40;99.90;;;;;;5063198;28;20049;-89
2022/05/24 00:30:49;;;;;;;3.50;1.60;;;13.40;99.90;;;;;;5065788;28;20068;-89
2022/05/24 00:33:16;;;;;;;3.45;1.27;;;13.40;99.90;;;;;;5054929;28;20110;-90
2022/05/24 00:35:42;;;;;;;4.90;2.15;;;13.40;99.90;;;;;;5073873;28;20040;-87
2022/05/24 00:38:11;;;;;;;4.22;2.05;;;13.30;99.90;;;;;;5053974;28;20045;-90
2022/05/24 00:40:39;;;;;;;3.90;1.83;;;13.40;99.90;;;;;;5065542;28;20049;-91
2022/05/24 00:43:12;;;;;;;3.88;1.50;;;13.50;99.90;;;;;;5066223;28;20382;-90
2022/05/24 00:45:43;;;;;;;2.72;1.60;;;13.30;99.90;;;;;;5065507;28;20481;-88
2022/05/24 00:48:20;;;;;;;3.60;2.15;;;13.20;99.90;;;;;;5054950;28;20045;-88
2022/05/24 00:50:48;;;;;;;3.38;2.38;;;13.20;99.90;;;;;;5047107;28;20044;-87
2022/05/24 00:53:27;;;;;;;3.13;1.67;;;13.70;99.90;;;;;;5072614;28;20033;-89
2022/05/24 00:56:17;;;;;;;4.65;2.00;;;13.20;99.90;;;;;;5048719;28;20044;-91
2022/05/24 00:58:59;;;;;;;4.57;1.73;;;13.10;99.90;;;;;;5050857;28;20053;-89
2022/05/24 01:01:35;;;;;;;3.28;1.88;;;13.10;99.90;;;;;;5051835;28;20044;-90
2022/05/24 01:04:06;;;;;;;4.65;2.20;;;13.10;99.90;;;;;;5072669;28;20508;-88
2022/05/24 01:06:32;;;;;;;3.20;2.10;;;13.10;99.90;;;;;;5054460;28;20802;-92
2022/05/24 01:09:01;;;;;;;4.53;1.65;;;13.00;99.90;;;;;;5054372;28;20075;-88
2022/05/24 01:11:29;;;;;;;5.72;2.35;;;13.10;99.90;;;;;;5070909;28;20048;-89
2022/05/24 01:13:57;;;;;;;4.05;3.22;;;13.00;99.90;;;;;;5067813;28;20049;-88
2022/05/24 01:16:23;;;;;;;4.60;2.50;;;13.00;99.90;;;;;;5069556;28;20044;-88
2022/05/24 01:18:49;;;;;;;4.03;1.90;;;13.20;99.90;;;;;;5065163;28;20040;-89
2022/05/24 01:21:16;;;;;;;3.38;1.63;;;13.10;99.90;;;;;;5048967;28;20171;-91
2022/05/24 01:24:00;;;;;;;3.13;1.95;;;13.10;99.90;;;;;;5045097;28;20029;-89
2022/05/24 01:26:49;;;;;;;5.07;2.28;;;13.00;99.90;;;;;;5054812;28;20396;-91
2022/05/24 01:29:15;;;;;;;2.75;1.60;;;13.00;99.90;;;;;;5067234;28;20454;-89
2022/05/24 01:37:11;;;;;;;1.70;0.90;;;12.90;99.90;;;;;;5061212;28;20094;-89
2022/05/24 01:39:38;;;;;;;2.08;1.30;;;12.80;99.90;;;;;;5050454;28;20056;-88
2022/05/24 01:42:04;;;;;;;2.70;1.10;;;12.80;99.90;;;;;;5052980;28;20079;-91
2022/05/24 01:44:59;;;;;;;2.00;0.90;;;12.70;99.90;;;;;;5072567;28;20181;-90
2022/05/24 01:47:26;;;;;;;2.45;1.40;;;12.60;99.90;;;;;;4944844;29;20069;-89
2022/05/24 01:49:58;;;;;;;2.03;1.33;;;12.60;99.90;;;;;;4937289;28;20982;-89
2022/05/24 01:52:30;;;;;;;2.47;1.33;;;12.90;99.90;;;;;;4957617;28;20062;-87
2022/05/24 01:55:05;;;;;;;2.95;1.40;;;12.60;99.90;;;;;;4961674;28;20047;-90
2022/05/24 01:57:36;;;;;;;1.80;1.15;;;12.50;99.90;;;;;;4953105;28;20047;-87
2022/05/24 02:00:07;;;;;;;4.30;1.38;;;12.50;99.90;;;;;;4953466;28;20059;-88
2022/05/24 02:02:33;;;;;;;3.72;1.42;;;12.50;99.90;;;;;;4959349;28;20055;-90
2022/05/24 02:04:58;;;;;;;2.00;1.10;;;12.40;99.90;;;;;;4958699;28;20558;-92
2022/05/24 02:07:25;;;;;;;3.67;1.38;;;12.30;99.90;;;;;;4958792;28;20070;-91
2022/05/24 02:09:54;;;;;;;2.40;1.42;;;12.30;99.90;;;;;;4936969;28;20047;-93
2022/05/24 02:12:23;;;;;;;2.92;1.50;;;12.20;99.90;;;;;;4954708;28;20062;-92
2022/05/24 02:14:59;;;;;;;3.90;1.33;;;12.20;99.90;;;;;;4967100;28;20046;-87
2022/05/24 02:17:52;;;;;;;4.05;1.88;;;12.20;99.90;;;;;;4945283;29;20051;-91
2022/05/24 02:20:25;;;;;;;2.05;1.30;;;11.90;99.90;;;;;;4955024;28;20051;-92
2022/05/24 02:22:51;;;;;;;4.80;1.70;;;12.20;99.90;;;;;;4955946;28;20095;-89
2022/05/24 02:25:26;;;;;;;2.97;1.63;;;12.20;99.90;;;;;;5032352;28;20072;-91
2022/05/24 02:27:53;;;;;;;4.00;1.80;;;12.50;99.90;;;;;;5069752;28;20119;-91
2022/05/24 02:30:24;;;;;;;3.92;1.75;;;12.20;99.90;;;;;;5050406;28;20286;-90
2022/05/24 02:32:50;;;;;;;3.05;1.80;;;12.20;99.90;;;;;;5039455;28;20041;-91
2022/05/24 02:35:16;;;;;;;6.20;2.60;;;12.20;99.90;;;;;;5056074;28;20051;-90
2022/05/24 02:37:42;;;;;;;3.33;1.42;;;12.20;99.90;;;;;;5067379;28;20051;-91
2022/05/24 02:42:54;;;;;;;2.83;1.67;;;12.30;99.90;;;;;;5064275;28;20041;-90
2022/05/24 02:45:20;;;;;;;4.95;2.15;;;12.30;99.90;;;;;;5071231;28;20102;-89
2022/05/24 02:47:46;;;;;;;2.50;1.42;;;12.70;99.90;;;;;;5053125;28;20052;-89
2022/05/24 02:50:12;;;;;;;6.82;2.17;;;12.30;99.90;;;;;;5071327;28;20048;-89
2022/05/24 02:52:40;;;;;;;6.03;3.33;;;12.40;99.90;;;;;;5070641;28;20086;-89
2022/05/24 02:55:07;;;;;;;3.40;2.13;;;12.50;99.90;;;;;;5071282;28;20396;-90
2022/05/24 02:57:33;;;;;;;3.20;2.03;;;12.40;99.90;;;;;;5066046;28;20128;-92
2022/05/24 02:59:59;;;;;;;2.60;1.52;;;12.40;99.90;;;;;;5067631;28;20040;-90
2022/05/24 03:02:25;;;;;;;2.28;2.00;;;12.40;99.90;;;;;;5068386;28;20035;-87
2022/05/24 03:04:50;;;;;;;3.88;1.80;;;12.50;99.90;;;;;;5045580;28;20033;-90
2022/05/24 03:10:00;;;;;;;3.50;2.13;;;12.80;99.90;;;;;;5067311;28;20045;-90
2022/05/24 03:15:11;;;;;;;6.32;3.40;;;12.50;99.90;;;;;;5069007;28;20047;-91
2022/05/24 03:17:36;;;;;;;4.80;2.47;;;12.50;99.90;;;;;;5070643;28;20037;-91
2022/05/24 03:20:03;;;;;;;4.38;2.13;;;12.50;99.90;;;;;;5069895;28;20098;-91
2022/05/24 03:22:30;;;;;;;5.75;1.73;;;12.60;99.90;;;;;;5052805;28;20121;-88
2022/05/24 03:24:56;;;;;;;5.57;2.50;;;12.60;99.90;;;;;;5067359;28;20037;-89
2022/05/24 03:27:21;;;;;;;5.85;3.00;;;12.60;99.90;;;;;;5067364;28;20437;-91
2022/05/24 03:29:48;;;;;;;2.72;1.80;;;12.60;99.90;;;;;;5049058;28;20401;-90
2022/05/24 03:32:15;;;;;;;5.60;2.20;;;12.70;99.90;;;;;;5073795;28;20500;-89
2022/05/24 03:34:42;;;;;;;5.20;2.92;;;12.70;99.90;;;;;;5060351;28;20051;-91
2022/05/24 03:37:08;;;;;;;5.82;2.67;;;12.70;99.90;;;;;;5056737;28;20037;-91
2022/05/24 03:39:35;;;;;;;4.68;2.50;;;12.70;99.90;;;;;;5070134;28;20505;-92
2022/05/24 03:42:02;;;;;;;5.00;2.45;;;12.70;99.90;;;;;;5070876;28;20037;-89
2022/05/24 03:44:27;;;;;;;3.97;2.13;;;13.50;99.90;;;;;;5067295;28;20040;-92
2022/05/24 03:46:54;;;;;;;3.88;2.35;;;12.70;99.90;;;;;;5073884;28;20041;-90
2022/05/24 03:49:20;;;;;;;5.70;2.95;;;13.10;99.90;;;;;;5055869;28;20479;-89
2022/05/24 03:51:46;;;;;;;5.90;3.92;;;12.80;99.90;;;;;;5075142;28;20075;-93
2022/05/24 03:54:15;;;;;;;4.18;2.63;;;12.90;99.90;;;;;;5067581;28;20061;-92
2022/05/24 03:58:00;;;;;;;9.13;3.60;;;12.90;99.90;;;;;;5054200;28;20059;-91
2022/05/24 03:59:30;;;;;;;6.25;3.30;;;12.90;99.90;;;;;;5063679;28;20057;-93
2022/05/24 04:01:56;;;;;;;4.70;3.00;;;13.50;99.90;;;;;;5074877;28;20047;-91
2022/05/24 04:04:22;;;;;;;4.85;2.95;;;12.90;99.90;;;;;;5064970;28;20468;-91
2022/05/24 04:06:48;;;;;;;6.00;2.60;;;13.40;99.90;;;;;;5072752;28;20032;-90
2022/05/24 04:09:13;;;;;;;8.18;5.00;;;13.00;99.90;;;;;;5065836;28;20045;-90
2022/05/24 04:11:39;;;;;;;6.28;3.63;;;13.00;99.90;;;;;;5063392;28;20408;-89
2022/05/24 04:14:05;;;;;;;5.55;3.83;;;13.00;99.90;;;;;;5050803;28;20094;-92
2022/05/24 04:16:31;;;;;;;8.57;5.38;;;13.00;99.90;;;;;;5048631;28;20508;-91
2022/05/24 04:18:57;;;;;;;9.85;5.53;;;13.10;99.90;;;;;;5048151;28;20406;-93
2022/05/24 04:21:23;;;;;;;10.48;7.10;;;13.10;99.90;;;;;;5045631;28;20041;-93
2022/05/24 04:23:48;;;;;;;7.72;3.90;;;13.90;99.90;;;;;;5063456;28;20113;-92
2022/05/24 04:26:14;;;;;;;6.70;4.00;;;13.20;99.90;;;;;;5062363;28;20059;-91
2022/05/24 04:28:40;;;;;;;10.05;5.82;;;13.20;99.90;;;;;;5065187;28;20033;-92
2022/05/24 04:31:05;;;;;;;6.30;4.65;;;13.90;99.90;;;;;;5073928;28;20473;-93
2022/05/24 04:33:31;;;;;;;10.30;6.72;;;13.30;99.90;;;;;;5047254;28;20047;-88
2022/05/24 04:35:57;;;;;;;9.82;6.10;;;13.30;99.90;;;;;;5067699;28;20390;-89
2022/05/24 04:38:24;;;;;;;11.07;6.43;;;13.30;99.90;;;;;;5055806;28;20049;-86
2022/05/24 04:43:33;;;;;;;8.23;4.07;;;13.30;99.90;;;;;;5072475;28;20094;-93
2022/05/24 04:45:59;;;;;;;9.63;6.45;;;13.40;99.90;;;;;;5055307;28;20044;-91
2022/05/24 04:48:26;;;;;;;10.70;6.65;;;13.40;99.90;;;;;;5051151;28;20028;-92
2022/05/24 04:50:56;;;;;;;9.82;5.47;;;13.80;99.90;;;;;;5047311;28;20040;-93
2022/05/24 04:53:24;;;;;;;11.35;6.38;;;13.40;99.90;;;;;;5073125;28;20036;-90
2022/05/24 04:55:49;;;;;;;7.43;4.68;;;13.40;99.90;;;;;;5065897;28;20048;-91
2022/05/24 04:58:16;;;;;;;12.88;6.90;;;13.90;99.90;;;;;;5067460;28;20044;-93
2022/05/24 05:00:42;;;;;;;9.43;5.82;;;13.60;99.90;;;;;;5069592;28;20076;-92
2022/05/24 05:03:13;;;;;;;9.40;5.47;;;13.50;99.90;;;;;;5050027;28;20025;-91
2022/05/24 05:05:40;;;;;;;9.98;6.18;;;13.60;99.90;;;;;;5062444;28;20051;-90
2022/05/24 05:08:08;;;;;;;8.52;5.38;;;14.10;99.90;;;;;;5055565;28;20041;-90
2022/05/24 05:10:34;;;;;;;9.05;4.78;;;13.60;99.90;;;;;;5072253;28;20041;-92
2022/05/24 05:13:04;;;;;;;7.53;4.32;;;13.50;99.90;;;;;;5069468;28;20501;-92
2022/05/24 05:15:34;;;;;;;7.00;3.63;;;13.70;99.90;;;;;;5062625;28;20155;-93
2022/05/24 05:18:18;;;;;;;6.82;4.13;;;14.00;99.90;;;;;;5064677;28;20528;-92
2022/05/24 05:20:44;;;;;;;6.00;2.63;;;13.80;99.90;;;;;;5047174;28;20174;-90
2022/05/24 05:23:13;;;;;;;5.70;3.20;;;14.20;99.90;;;;;;5051321;28;20045;-92
2022/05/24 05:25:41;;;;;;;6.32;3.05;;;13.90;99.90;;;;;;5064190;28;20036;-93
2022/05/24 05:28:08;;;;;;;6.45;3.38;;;13.80;99.90;;;;;;5073096;28;20039;-92
2022/05/24 05:33:18;;;;;;;5.95;2.25;;;13.80;99.90;;;;;;5073186;28;20098;-91
2022/05/24 05:35:45;;;;;;;7.45;3.80;;;13.80;99.90;;;;;;5054703;28;20079;-94
2022/05/24 05:38:11;;;;;;;5.03;3.08;;;13.90;99.90;;;;;;5071551;28;20038;-92
2022/05/24 05:40:40;;;;;;;3.13;2.20;;;14.10;99.90;;;;;;5055700;28;20451;-90
2022/05/24 05:43:05;;;;;;;7.03;3.10;;;14.00;99.90;;;;;;5064965;28;20124;-93
2022/05/24 05:45:31;;;;;;;5.80;2.17;;;14.00;99.90;;;;;;5073123;28;20137;-92
2022/05/24 05:47:57;;;;;;;6.80;2.50;;;14.10;99.90;;;;;;5063854;28;20041;-93
2022/05/24 05:50:23;;;;;;;4.88;2.45;;;14.10;99.90;;;;;;5070001;28;20044;-90
2022/05/24 05:52:50;;;;;;;3.70;2.10;;;14.10;99.90;;;;;;5057559;28;20090;-90
2022/05/24 05:55:26;;;;;;;10.00;4.93;;;14.10;99.90;;;;;;5056266;28;20051;-90
2022/05/24 05:57:51;;;;;;;5.63;3.70;;;14.10;99.90;;;;;;5058524;28;20067;-87
2022/05/24 06:00:18;;;;;;;5.45;3.33;;;14.10;99.90;;;;;;5073084;28;20037;-86
2022/05/24 06:02:44;;;;;;;8.25;3.95;;;14.00;99.90;;;;;;5050191;28;20044;-87
2022/05/24 06:05:10;;;;;;;9.82;3.58;;;14.10;99.90;;;;;;5046567;28;20080;-88
2022/05/24 06:07:37;;;;;;;6.82;3.90;;;14.10;99.90;;;;;;5050349;28;20055;-87
2022/05/24 06:10:09;;;;;;;6.47;3.83;;;14.10;99.90;;;;;;5052907;28;20118;-89
2022/05/24 06:12:35;;;;;;;7.97;2.83;;;14.10;99.90;;;;;;5065229;28;20041;-88
2022/05/24 06:15:01;;;;;;;5.50;2.85;;;14.00;99.90;;;;;;5044713;28;20496;-88
2022/05/24 06:17:27;;;;;;;5.53;2.90;;;14.40;99.90;;;;;;5050229;28;20401;-89
2022/05/24 06:19:53;;;;;;;6.45;3.10;;;13.90;99.90;;;;;;5061055;28;20056;-87
2022/05/24 06:22:18;;;;;;;10.45;5.47;;;14.00;99.90;;;;;;5054052;28;20037;-87
2022/05/24 06:24:46;;;;;;;6.05;3.55;;;13.90;99.90;;;;;;5064915;28;20505;-88
2022/05/24 06:27:12;;;;;;;4.97;2.97;;;13.90;99.90;;;;;;5050675;28;20128;-87
2022/05/24 06:29:38;;;;;;;7.88;4.40;;;13.90;99.90;;;;;;5054221;28;20052;-87
2022/05/24 06:32:04;;;;;;;6.78;5.10;;;14.10;99.90;;;;;;5062829;28;20036;-88
2022/05/24 06:34:31;;;;;;;8.85;3.72;;;14.00;99.90;;;;;;5048391;28;20068;-88
2022/05/24 06:36:57;;;;;;;6.97;3.17;;;14.00;99.90;;;;;;5067975;28;20036;-84
2022/05/24 06:39:24;;;;;;;6.78;3.08;;;14.00;99.90;;;;;;5064130;28;20055;-86
2022/05/24 06:41:57;;;;;;;6.03;3.70;;;13.90;99.90;;;;;;5053799;28;20492;-89
2022/05/24 06:44:31;;;;;;;5.13;3.75;;;13.90;99.90;;;;;;5038391;28;20040;-87
2022/05/24 06:46:57;;;;;;;8.57;4.45;;;13.90;99.90;;;;;;5045351;28;20044;-90
2022/05/24 06:49:28;;;;;;;10.20;4.00;;;14.00;99.90;;;;;;5049407;28;20033;-90
2022/05/24 06:51:57;;;;;;;10.18;4.40;;;14.00;99.90;;;;;;5049598;28;20058;-89
2022/05/24 06:54:35;;;;;;;5.03;3.55;;;14.20;99.90;;;;;;5046123;23;20057;-89
2022/05/24 06:57:44;;;;;;;8.73;4.05;;;14.00;99.90;;;;;;5002724;28;20056;-87
2022/05/24 07:03:04;;;;;;;7.10;3.00;;;14.00;99.90;;;;;;4944177;29;20043;-86
2022/05/24 07:05:30;;;;;;;6.57;3.50;;;14.00;99.90;;;;;;4921279;29;20067;-87
2022/05/24 07:08:00;;;;;;;4.18;2.72;;;14.20;99.90;;;;;;4934882;29;20055;-85
2022/05/24 07:10:26;;;;;;;7.45;2.47;;;14.50;99.90;;;;;;4920502;29;20058;-87
2022/05/24 07:13:04;;;;;;;5.07;2.85;;;14.20;99.90;;;;;;4936671;29;20474;-86
2022/05/24 07:15:31;;;;;;;6.75;3.20;;;14.20;99.90;;;;;;4936077;29;20043;-86
2022/05/24 07:17:57;;;;;;;4.45;2.75;;;14.30;99.90;;;;;;4920483;29;20055;-87
2022/05/24 07:20:25;;;;;;;5.40;3.42;;;14.30;99.90;;;;;;4936012;29;20485;-88
2022/05/24 07:22:52;;;;;;;8.05;3.63;;;14.00;99.90;;;;;;4920716;29;20052;-87
2022/05/24 07:25:19;;;;;;;6.78;3.35;;;14.50;99.90;;;;;;4936070;29;20044;-87
2022/05/24 07:27:48;;;;;;;8.35;4.22;;;14.60;99.90;;;;;;4936306;29;20091;-88
2022/05/24 07:30:16;;;;;;;6.25;3.75;;;14.70;99.90;;;;;;4928116;29;20060;-87
2022/05/24 07:32:43;;;;;;;6.25;3.85;;;14.80;99.90;;;;;;4936178;29;20051;-86
2022/05/24 07:35:09;;;;;;;9.00;4.55;;;14.80;99.90;;;;;;4936438;29;20159;-86
2022/05/24 07:37:34;;;;;;;6.63;4.00;;;14.90;99.90;;;;;;4971833;28;20046;-85
2022/05/24 07:48:04;;;;;;;5.68;2.80;;;15.00;99.90;;;;;;5006519;28;20399;-87
2022/05/24 07:50:30;;;;;;;4.82;2.63;;;15.00;99.90;;;;;;4996313;28;20042;-87
2022/05/24 07:52:55;;;;;;;7.63;3.22;;;14.90;99.90;;;;;;5003278;28;20088;-86
2022/05/24 07:55:21;;;;;;;3.95;2.28;;;14.90;99.90;;;;;;5006389;28;20144;-88
2022/05/24 07:57:47;;;;;;;4.47;2.47;;;14.80;99.90;;;;;;5007833;28;20419;-87
2022/05/24 08:00:14;;;;;;;5.53;3.15;;;14.80;99.90;;;;;;5013503;28;20044;-87
2022/05/24 08:02:40;;;;;;;5.43;2.30;;;14.80;99.90;;;;;;5002816;28;20042;-86
2022/05/24 08:05:07;;;;;;;5.40;1.88;;;14.70;99.90;;;;;;4986699;28;20045;-85
2022/05/24 08:07:32;;;;;;;3.33;1.50;;;14.60;99.90;;;;;;4999031;28;20050;-87
2022/05/24 08:09:58;;;;;;;3.97;1.10;;;15.10;99.90;;;;;;5007291;28;20107;-86
2022/05/24 08:12:24;;;;;;;3.22;1.92;;;14.60;99.90;;;;;;5013236;28;20453;-87
2022/05/24 08:14:50;;;;;;;3.95;2.17;;;14.60;99.90;;;;;;5004226;28;20034;-85
2022/05/24 08:17:15;;;;;;;3.88;1.60;;;14.70;99.90;;;;;;5009882;28;20085;-86
2022/05/24 08:19:41;;;;;;;4.75;1.83;;;14.60;99.90;;;;;;5004786;28;20533;-85
2022/05/24 08:22:07;;;;;;;3.58;1.50;;;14.40;99.90;;;;;;4997192;28;20125;-85
2022/05/24 08:24:34;;;;;;;3.58;1.40;;;14.60;99.90;;;;;;5003117;28;20057;-86
2022/05/24 08:27:00;;;;;;;2.72;1.60;;;14.40;99.90;;;;;;5009942;28;20497;-85
2022/05/24 08:29:26;;;;;;;4.13;2.00;;;14.30;99.90;;;;;;5014567;28;20069;-89
2022/05/24 08:32:02;;;;;;;2.88;1.70;;;14.40;99.90;;;;;;5006834;28;20505;-87
2022/05/24 08:34:28;;;;;;;4.70;1.77;;;14.40;99.90;;;;;;4989276;28;20046;-86
2022/05/24 08:36:53;;;;;;;4.43;1.40;;;14.40;99.90;;;;;;5005727;28;20038;-86
2022/05/24 08:39:19;;;;;;;5.65;1.83;;;14.40;99.90;;;;;;5013215;28;20043;-85
2022/05/24 08:41:45;;;;;;;2.22;1.20;;;14.30;99.90;;;;;;5021423;28;20042;-87
2022/05/24 08:49:58;;;;;;;1.92;1.08;;;14.40;99.90;;;;;;5013668;28;20053;-86
2022/05/24 08:52:33;;;;;;;4.40;1.73;;;14.40;99.90;;;;;;5006732;28;20045;-85
2022/05/24 08:54:59;;;;;;;4.28;1.55;;;14.40;99.90;;;;;;5011180;28;20081;-86
2022/05/24 08:57:36;;;;;;;2.72;1.92;;;14.40;99.90;;;;;;5009764;28;20058;-85
2022/05/24 09:00:13;;;;;;;3.53;2.00;;;14.50;99.90;;;;;;4995385;28;20514;-85
2022/05/24 09:02:44;;;;;;;5.65;1.75;;;14.50;99.90;;;;;;4995232;28;20049;-85
2022/05/24 09:05:17;;;;;;;3.38;1.73;;;14.50;99.90;;;;;;4995105;28;20053;-85
2022/05/24 09:08:21;;;;;;;4.80;1.50;;;14.50;99.90;;;;;;4993916;28;20129;-86
2022/05/24 09:10:47;;;;;;;5.72;2.55;;;14.50;99.90;;;;;;4994783;28;20050;-87
2022/05/24 09:13:43;;;;;;;7.35;2.75;;;15.10;99.90;;;;;;4994810;28;20437;-89
2022/05/24 09:16:15;;;;;;;;;;;14.70;99.90;;;;;;4994086;28;20474;-87
2022/05/24 09:19:06;;;;;;;4.28;2.78;;;14.40;99.90;;;;;;4995657;28;19926;-89
2022/05/24 09:21:35;;;;;;;7.30;5.07;;;14.60;99.90;;;;;;4995278;28;20105;-88
2022/05/24 09:24:15;;;;;;;6.60;3.33;;;14.50;99.90;;;;;;4992652;28;20050;-87
2022/05/24 09:27:04;;;;;;;6.22;2.85;;;14.50;99.90;;;;;;4993421;28;20050;-92
2022/05/24 09:30:19;;;;;;;5.53;2.67;;;14.40;99.90;;;;;;4995988;28;20384;-89
2022/05/24 09:32:50;;;;;;;4.20;2.05;;;14.40;99.90;;;;;;4995281;28;20056;-88
2022/05/24 09:35:26;;;;;;;2.92;1.23;;;14.40;99.90;;;;;;4995085;28;20046;-89
2022/05/24 09:38:13;;;;;;;1.02;0.75;;;14.20;99.90;;;;;;4994915;28;20061;-88
2022/05/24 09:41:18;;;;;;;1.35;0.80;;;14.10;99.90;;;;;;4994534;28;20088;-88
2022/05/24 09:44:06;;;;;;;1.13;0.60;;;14.00;99.90;;;;;;4918323;29;20051;-87
2022/05/24 09:46:36;;;;;;;1.38;0.50;;;14.00;99.90;;;;;;4917935;29;20083;-87
2022/05/24 09:52:26;;;;;;;1.60;0.70;;;14.00;99.90;;;;;;4917925;29;20053;-87
2022/05/24 09:55:01;;;;;;;2.30;0.70;;;13.90;99.90;;;;;;4902486;29;20489;-87
2022/05/24 09:57:32;;;;;;;1.05;0.50;;;14.10;99.90;;;;;;4918197;29;20560;-88
2022/05/24 10:00:20;;;;;;;1.20;0.60;;;14.20;99.90;;;;;;4933963;29;20091;-86
2022/05/24 10:02:48;;;;;;;2.35;0.70;;;14.30;99.90;;;;;;4933898;29;20050;-87
2022/05/24 10:05:22;;;;;;;1.70;0.63;;;14.60;99.90;;;;;;4902007;29;20489;-87
2022/05/24 10:08:19;;;;;;;1.13;0.60;;;14.80;99.90;;;;;;4917893;29;20036;-86
2022/05/24 10:10:48;;;;;;;2.22;0.80;;;14.80;99.90;;;;;;4901438;29;20629;-91
2022/05/24 10:13:39;;;;;;;0.90;0.70;;;14.80;99.90;;;;;;4902522;29;20127;-87
2022/05/24 10:16:33;;;;;;;3.20;0.73;;;14.90;99.90;;;;;;4934219;29;20409;-86
2022/05/24 10:19:17;;;;;;;0.80;0.60;;;14.90;99.90;;;;;;4936809;29;20544;-86
2022/05/24 10:21:59;;;;;;;1.88;0.80;;;15.00;99.90;;;;;;4920664;29;20050;-86
2022/05/24 10:25:08;;;;;;;1.63;0.60;;;15.20;99.90;;;;;;4936339;29;20524;-87
2022/05/24 10:28:04;;;;;;;1.45;0.75;;;15.30;99.90;;;;;;4861458;29;20059;-87
2022/05/24 10:30:52;;;;;;;2.22;0.73;;;15.40;99.90;;;;;;4861509;29;20471;-86
2022/05/24 10:39:30;;;;;;;4.90;0.93;;;15.40;99.90;;;;;;4876917;29;20144;-86
2022/05/24 10:42:34;;;;;;;2.80;0.85;;;15.50;99.90;;;;;;4876616;29;20093;-86
2022/05/24 10:45:16;;;;;;;2.58;0.50;;;15.40;99.90;;;;;;4861257;29;20167;-90
2022/05/24 10:48:03;;;;;;;0.98;0.70;;;15.70;99.90;;;;;;4882557;29;20053;-82
2022/05/24 10:50:52;;;;;;;1.08;0.70;;;15.50;99.90;;;;;;4889165;29;20056;-90
2022/05/24 10:53:41;;;;;;;1.10;0.80;;;14.90;99.90;;;;;;4869717;29;20497;-86
2022/05/24 10:56:35;;;;;;;2.95;0.80;;;15.20;99.90;;;;;;4891105;29;20050;-86
2022/05/24 10:59:10;;;;;;;1.38;0.70;;;15.20;99.90;;;;;;4906944;29;20048;-85
2022/05/24 11:01:50;;;;;;;0.90;0.70;;;15.20;99.90;;;;;;4971434;28;20056;-82
2022/05/24 11:04:23;;;;;;;2.45;0.73;;;15.20;99.90;;;;;;5002082;28;20300;-84
2022/05/24 11:07:02;;;;;;;4.13;0.80;;;15.30;99.90;;;;;;5001737;28;20122;-83
2022/05/24 11:09:32;;;;;;;2.67;1.10;;;15.60;99.90;;;;;;5020156;28;20041;-84
2022/05/24 11:12:06;;;;;;;2.83;0.73;;;16.00;99.90;;;;;;5010147;28;20046;-85
2022/05/24 11:14:41;;;;;;;1.42;0.68;;;16.40;99.90;;;;;;5003916;28;20046;-85
2022/05/24 11:17:12;;;;;;;2.58;0.88;;;16.50;99.90;;;;;;5003344;28;20123;-85
2022/05/24 11:19:45;;;;;;;2.17;0.77;;;16.60;99.90;;;;;;5005030;28;20441;-84
2022/05/24 11:22:41;;;;;;;2.63;0.90;;;16.70;99.90;;;;;;5011981;28;20449;-85
2022/05/24 11:25:30;;;;;;;1.40;0.70;;;16.60;99.90;;;;;;5004316;28;20037;-85
2022/05/24 11:27:59;;;;;;;1.88;0.70;;;16.50;99.90;;;;;;4999502;28;20552;-85
2022/05/24 11:30:28;;;;;;;5.47;0.98;;;16.30;99.90;;;;;;5002852;28;20057;-84
2022/05/24 11:33:07;;;;;;;3.80;1.75;;;16.20;99.90;;;;;;5001154;28;20476;-86
2022/05/24 11:35:44;;;;;;;2.85;0.80;;;16.00;99.90;;;;;;5000407;28;20561;-85
2022/05/24 11:38:22;;;;;;;1.38;0.30;;;15.40;99.90;;;;;;5004609;28;20046;-84
2022/05/24 11:40:59;;;;;;;2.67;0.45;;;15.00;99.90;;;;;;5012017;28;20563;-86
2022/05/24 11:43:43;;;;;;;1.98;0.50;;;14.60;99.90;;;;;;5018208;28;20042;-86
2022/05/24 11:46:29;;;;;;;2.70;0.55;;;14.50;99.90;;;;;;5000427;28;20069;-83
2022/05/24 11:48:56;;;;;;;0.52;0.40;;;14.50;99.90;;;;;;4941093;29;20493;-85
2022/05/24 11:51:39;;;;;;;2.45;0.60;;;14.80;99.90;;;;;;4931004;29;20098;-84
2022/05/24 11:54:24;;;;;;;0.73;0.60;;;15.10;99.90;;;;;;4947991;29;20110;-85
2022/05/24 11:56:53;;;;;;;0.80;0.50;;;15.60;99.90;;;;;;4947575;29;20135;-84
2022/05/24 11:59:38;;;;;;;0.90;0.40;;;16.00;99.90;;;;;;4945640;29;20488;-84
2022/05/24 12:02:19;;;;;;;0.65;0.50;;;16.20;99.90;;;;;;4949226;29;20051;-85
2022/05/24 12:07:56;;;;;;;0.80;0.50;;;16.10;99.90;;;;;;4938606;29;20139;-85
2022/05/24 12:10:21;;;;;;;1.20;0.50;;;16.00;99.90;;;;;;4931080;29;20440;-84
2022/05/24 12:12:57;;;;;;;0.73;0.50;;;15.90;99.90;;;;;;4950800;29;20047;-83
2022/05/24 12:15:35;;;;;;;0.50;0.40;;;15.80;99.90;;;;;;4949527;29;20118;-84
2022/05/24 12:18:00;;;;;;;0.77;0.35;;;15.70;99.90;;;;;;4923795;29;20464;-84
2022/05/24 12:20:34;;;;;;;1.73;0.47;;;15.50;99.90;;;;;;4952883;29;20051;-84
2022/05/24 12:23:14;;;;;;;1.33;0.40;;;15.30;99.90;;;;;;4953751;29;20042;-85
2022/05/24 12:25:55;;;;;;;1.80;0.40;;;15.10;99.90;;;;;;4949034;28;20057;-82
2022/05/24 12:28:40;;;;;;;2.10;0.50;;;15.40;99.90;;;;;;5004605;28;20058;-85
2022/05/24 12:31:18;;;;;;;1.38;0.40;;;15.70;99.90;;;;;;5022041;28;20046;-85
2022/05/24 12:33:46;;;;;;;5.72;0.75;;;16.20;99.90;;;;;;5017175;28;20069;-86
2022/05/24 12:36:20;;;;;;;3.08;0.60;;;16.40;99.90;;;;;;5008380;28;20450;-85
2022/05/24 12:38:56;;;;;;;2.28;0.50;;;16.50;99.90;;;;;;5004646;28;20037;-86
2022/05/24 12:41:27;;;;;;;2.95;0.47;;;16.40;99.90;;;;;;4999979;28;20104;-87
2022/05/24 12:44:18;;;;;;;1.05;0.60;;;16.20;99.90;;;;;;5004592;28;20072;-86
2022/05/24 12:47:11;;;;;;;0.65;0.30;;;16.00;99.90;;;;;;5002935;28;20050;-86
2022/05/24 12:49:48;;;;;;;1.20;0.38;;;15.80;99.90;;;;;;5009080;28;20045;-85
2022/05/24 12:52:22;;;;;;;2.28;0.50;;;15.80;99.90;;;;;;4998172;28;20041;-85
2022/05/24 12:54:56;;;;;;;1.45;1.30;;;15.90;99.90;;;;;;5013366;28;20050;-86
2022/05/24 12:57:33;;;;;;;0.80;0.35;;;16.10;99.90;;;;;;4999325;28;20050;-85
2022/05/24 13:00:08;;;;;;;0.75;0.30;;;16.30;99.90;;;;;;5008903;28;20081;-84
2022/05/24 13:02:34;;;;;;;3.43;0.50;;;16.60;99.90;;;;;;5004415;28;20034;-85
2022/05/24 13:05:18;;;;;;;2.72;0.47;;;17.00;99.90;;;;;;4995826;28;20038;-84
2022/05/24 13:07:57;;;;;;;1.90;0.47;;;16.70;99.90;;;;;;5003003;28;20490;-86
2022/05/24 13:10:29;;;;;;;2.28;0.40;;;16.70;99.90;;;;;;5010050;28;20046;-85
2022/05/24 13:12:58;;;;;;;3.63;0.43;;;17.10;99.90;;;;;;5003412;28;20125;-84
2022/05/24 13:15:55;;;;;;;1.23;0.47;;;17.40;99.90;;;;;;5006663;28;20517;-84
2022/05/24 13:18:23;;;;;;;1.67;0.30;;;17.80;99.90;;;;;;5014291;28;20064;-83
2022/05/24 13:20:55;;;;;;;2.15;0.40;;;18.10;99.90;;;;;;5006739;28;20038;-86
2022/05/24 13:23:33;;;;;;;3.05;0.55;;;17.90;99.90;;;;;;5003881;28;20057;-87
2022/05/24 13:26:02;;;;;;;1.08;0.40;;;17.80;99.90;;;;;;5003468;28;20047;-84
2022/05/24 13:28:41;;;;;;;3.45;0.45;;;17.30;99.90;;;;;;5003797;28;20061;-84
2022/05/24 13:34:17;;;;;;;2.28;0.30;;;17.50;99.90;;;;;;4995619;28;20042;-83
2022/05/24 13:36:55;;;;;;;3.47;0.20;;;18.00;99.90;;;;;;4999489;28;20049;-80
2022/05/24 13:39:25;;;;;;;2.50;0.28;;;18.50;99.90;;;;;;5006116;28;20053;-85
2022/05/24 13:42:01;;;;;;;0.85;0.30;;;18.90;99.90;;;;;;5003439;28;20043;-86
2022/05/24 13:44:59;;;;;;;1.70;0.30;;;19.20;99.90;;;;;;5004562;28;20053;-86
2022/05/24 13:47:30;;;;;;;1.85;0.28;;;19.50;99.90;;;;;;5004593;28;20447;-91
2022/05/24 13:49:57;;;;;;;2.97;0.40;;;19.50;99.90;;;;;;4999832;28;20045;-90
2022/05/24 13:52:25;;;;;;;2.13;0.30;;;19.30;99.90;;;;;;5003888;28;20097;-88
2022/05/24 13:55:13;;;;;;;1.23;0.20;;;19.10;99.90;;;;;;5001123;28;20058;-88
2022/05/24 13:57:48;;;;;;;2.42;0.30;;;18.90;99.90;;;;;;5003379;28;20046;-87
2022/05/24 14:01:03;;;;;;;2.28;0.40;;;18.80;99.90;;;;;;5006321;28;20403;-86
2022/05/24 14:03:54;;;;;;;4.72;1.33;;;18.70;99.90;;;;;;4987506;28;20130;-90